Washington, District of Columbia
Traffic Map
Current Weather Conditions
Washington, District of Columbia
Overcast
Overcast
67°
Feels Like: 67°
Wind Chill: 67° Ceiling: 4000
Heat Index: 67° Visibility: 10mi
Dew Point: 58° Wind: 7mph
Humidity: 73% Direction: 340° (NNW)
Pressure: 30in Gusts: 0mph
Raw Report DataKDCA 271452Z 34006KT 10SM OVC040 19/14 A3000 RMK AO2 SLP158 T01940144 50007
Traffic Incident Summary
Active as of:
Severity:
Category:
InformationThere was an issue retrieving the traffic information for this location. Please try a different location or try again shortly.
Advertisements
Track Severe Weather on mobile